sensor_id;sensor_type;location;lat;lon;timestamp;P1;durP1;ratioP1;P2;durP2;ratioP2
21114;SDS011;10715;48.546;9.896;2022-09-09T00:01:28;0.97;;;0.40;;
21114;SDS011;10715;48.546;9.896;2022-09-09T00:09:45;1.20;;;0.40;;
21114;SDS011;10715;48.546;9.896;2022-09-09T00:12:33;1.07;;;0.50;;
21114;SDS011;10715;48.546;9.896;2022-09-09T00:15:22;1.70;;;0.50;;
21114;SDS011;10715;48.546;9.896;2022-09-09T00:18:15;0.77;;;0.40;;
21114;SDS011;10715;48.546;9.896;2022-09-09T00:21:06;27.93;;;1.10;;
21114;SDS011;10715;48.546;9.896;2022-09-09T00:23:38;1.20;;;0.40;;
21114;SDS011;10715;48.546;9.896;2022-09-09T00:31:29;2.00;;;0.50;;
21114;SDS011;10715;48.546;9.896;2022-09-09T00:34:42;0.83;;;0.50;;
21114;SDS011;10715;48.546;9.896;2022-09-09T00:36:44;1.00;;;0.50;;
21114;SDS011;10715;48.546;9.896;2022-09-09T00:39:18;0.90;;;0.40;;
21114;SDS011;10715;48.546;9.896;2022-09-09T00:50:12;2.17;;;0.60;;
21114;SDS011;10715;48.546;9.896;2022-09-09T00:59:22;0.90;;;0.50;;
21114;SDS011;10715;48.546;9.896;2022-09-09T01:02:02;1.77;;;0.60;;
21114;SDS011;10715;48.546;9.896;2022-09-09T01:04:52;0.70;;;0.40;;
21114;SDS011;10715;48.546;9.896;2022-09-09T01:07:19;0.73;;;0.40;;
21114;SDS011;10715;48.546;9.896;2022-09-09T01:10:02;0.80;;;0.50;;
21114;SDS011;10715;48.546;9.896;2022-09-09T01:12:41;1.23;;;0.50;;
21114;SDS011;10715;48.546;9.896;2022-09-09T01:17:44;5.40;;;0.40;;
21114;SDS011;10715;48.546;9.896;2022-09-09T01:20:39;0.90;;;0.40;;
21114;SDS011;10715;48.546;9.896;2022-09-09T01:26:23;0.80;;;0.40;;
21114;SDS011;10715;48.546;9.896;2022-09-09T01:28:53;0.87;;;0.47;;
21114;SDS011;10715;48.546;9.896;2022-09-09T01:31:30;6.87;;;0.73;;
21114;SDS011;10715;48.546;9.896;2022-09-09T01:34:16;1.03;;;0.80;;
21114;SDS011;10715;48.546;9.896;2022-09-09T01:36:43;2.20;;;0.60;;
21114;SDS011;10715;48.546;9.896;2022-09-09T01:39:29;5.60;;;0.77;;
21114;SDS011;10715;48.546;9.896;2022-09-09T01:41:56;1.17;;;0.50;;
21114;SDS011;10715;48.546;9.896;2022-09-09T01:44:22;4.30;;;0.47;;
21114;SDS011;10715;48.546;9.896;2022-09-09T01:46:49;1.53;;;0.70;;
21114;SDS011;10715;48.546;9.896;2022-09-09T01:49:15;1.03;;;0.93;;
21114;SDS011;10715;48.546;9.896;2022-09-09T01:51:42;1.00;;;0.90;;
21114;SDS011;10715;48.546;9.896;2022-09-09T01:54:08;2.30;;;0.70;;
21114;SDS011;10715;48.546;9.896;2022-09-09T01:59:18;1.57;;;1.03;;
21114;SDS011;10715;48.546;9.896;2022-09-09T02:07:38;5.47;;;0.83;;
21114;SDS011;10715;48.546;9.896;2022-09-09T02:10:20;0.90;;;0.60;;
21114;SDS011;10715;48.546;9.896;2022-09-09T02:13:08;1.17;;;0.70;;
21114;SDS011;10715;48.546;9.896;2022-09-09T02:15:47;3.47;;;0.50;;
21114;SDS011;10715;48.546;9.896;2022-09-09T02:21:13;1.57;;;0.70;;
21114;SDS011;10715;48.546;9.896;2022-09-09T02:23:41;1.00;;;0.50;;
21114;SDS011;10715;48.546;9.896;2022-09-09T02:26:08;0.80;;;0.50;;
21114;SDS011;10715;48.546;9.896;2022-09-09T02:28:38;2.10;;;0.77;;
21114;SDS011;10715;48.546;9.896;2022-09-09T02:31:05;1.67;;;0.60;;
21114;SDS011;10715;48.546;9.896;2022-09-09T02:33:36;1.07;;;0.60;;
21114;SDS011;10715;48.546;9.896;2022-09-09T02:36:07;0.87;;;0.40;;
21114;SDS011;10715;48.546;9.896;2022-09-09T02:38:38;1.77;;;0.50;;
21114;SDS011;10715;48.546;9.896;2022-09-09T02:41:10;1.27;;;0.50;;
21114;SDS011;10715;48.546;9.896;2022-09-09T02:43:36;1.47;;;0.60;;
21114;SDS011;10715;48.546;9.896;2022-09-09T02:46:14;0.90;;;0.60;;
21114;SDS011;10715;48.546;9.896;2022-09-09T02:52:06;0.77;;;0.60;;
21114;SDS011;10715;48.546;9.896;2022-09-09T02:54:38;2.33;;;0.50;;
21114;SDS011;10715;48.546;9.896;2022-09-09T02:57:12;0.80;;;0.50;;
21114;SDS011;10715;48.546;9.896;2022-09-09T02:59:44;1.47;;;0.60;;
21114;SDS011;10715;48.546;9.896;2022-09-09T03:02:11;4.00;;;0.67;;
21114;SDS011;10715;48.546;9.896;2022-09-09T03:04:38;0.90;;;0.50;;
21114;SDS011;10715;48.546;9.896;2022-09-09T03:07:04;1.50;;;0.73;;
21114;SDS011;10715;48.546;9.896;2022-09-09T03:09:30;2.23;;;1.43;;
21114;SDS011;10715;48.546;9.896;2022-09-09T03:11:57;5.63;;;1.80;;
21114;SDS011;10715;48.546;9.896;2022-09-09T03:14:24;2.10;;;1.20;;
21114;SDS011;10715;48.546;9.896;2022-09-09T03:16:53;8.10;;;1.40;;
21114;SDS011;10715;48.546;9.896;2022-09-09T03:19:19;2.23;;;1.60;;
21114;SDS011;10715;48.546;9.896;2022-09-09T03:21:46;1.30;;;1.10;;
21114;SDS011;10715;48.546;9.896;2022-09-09T03:24:13;1.73;;;0.70;;
21114;SDS011;10715;48.546;9.896;2022-09-09T03:26:39;3.00;;;0.90;;
21114;SDS011;10715;48.546;9.896;2022-09-09T03:29:06;2.10;;;0.53;;
21114;SDS011;10715;48.546;9.896;2022-09-09T03:31:35;1.23;;;0.80;;
21114;SDS011;10715;48.546;9.896;2022-09-09T03:34:01;1.17;;;0.80;;
21114;SDS011;10715;48.546;9.896;2022-09-09T03:36:27;2.27;;;1.60;;
21114;SDS011;10715;48.546;9.896;2022-09-09T03:38:53;1.97;;;1.37;;
21114;SDS011;10715;48.546;9.896;2022-09-09T03:41:20;1.97;;;1.67;;
21114;SDS011;10715;48.546;9.896;2022-09-09T03:43:50;2.13;;;1.30;;
21114;SDS011;10715;48.546;9.896;2022-09-09T03:46:16;3.23;;;1.57;;
21114;SDS011;10715;48.546;9.896;2022-09-09T03:48:42;1.97;;;1.57;;
21114;SDS011;10715;48.546;9.896;2022-09-09T03:51:09;1.97;;;1.03;;
21114;SDS011;10715;48.546;9.896;2022-09-09T03:53:35;2.90;;;0.83;;
21114;SDS011;10715;48.546;9.896;2022-09-09T03:56:02;1.47;;;0.87;;
21114;SDS011;10715;48.546;9.896;2022-09-09T03:58:32;1.40;;;0.80;;
21114;SDS011;10715;48.546;9.896;2022-09-09T04:01:06;1.23;;;0.73;;
21114;SDS011;10715;48.546;9.896;2022-09-09T04:03:38;2.33;;;0.80;;
21114;SDS011;10715;48.546;9.896;2022-09-09T04:06:04;1.23;;;0.70;;
21114;SDS011;10715;48.546;9.896;2022-09-09T04:08:34;3.77;;;0.73;;
21114;SDS011;10715;48.546;9.896;2022-09-09T04:11:01;1.37;;;0.60;;
21114;SDS011;10715;48.546;9.896;2022-09-09T04:13:30;3.90;;;1.10;;
21114;SDS011;10715;48.546;9.896;2022-09-09T04:15:59;4.63;;;1.93;;
21114;SDS011;10715;48.546;9.896;2022-09-09T04:18:27;2.10;;;1.23;;
21114;SDS011;10715;48.546;9.896;2022-09-09T04:20:55;4.63;;;1.53;;
21114;SDS011;10715;48.546;9.896;2022-09-09T04:23:22;3.30;;;3.00;;
21114;SDS011;10715;48.546;9.896;2022-09-09T04:25:53;2.60;;;2.10;;
21114;SDS011;10715;48.546;9.896;2022-09-09T04:28:20;14.60;;;3.53;;
21114;SDS011;10715;48.546;9.896;2022-09-09T04:30:47;3.93;;;1.97;;
21114;SDS011;10715;48.546;9.896;2022-09-09T04:33:14;16.53;;;2.23;;
21114;SDS011;10715;48.546;9.896;2022-09-09T04:35:46;2.23;;;2.03;;
21114;SDS011;10715;48.546;9.896;2022-09-09T04:38:14;2.20;;;2.00;;
21114;SDS011;10715;48.546;9.896;2022-09-09T04:40:46;2.67;;;2.30;;
21114;SDS011;10715;48.546;9.896;2022-09-09T04:43:12;1.93;;;1.63;;
21114;SDS011;10715;48.546;9.896;2022-09-09T04:45:39;2.40;;;2.20;;
21114;SDS011;10715;48.546;9.896;2022-09-09T04:48:06;3.33;;;1.73;;
21114;SDS011;10715;48.546;9.896;2022-09-09T04:50:31;3.33;;;2.87;;
21114;SDS011;10715;48.546;9.896;2022-09-09T04:53:04;3.00;;;1.97;;
21114;SDS011;10715;48.546;9.896;2022-09-09T04:55:30;4.30;;;1.70;;
21114;SDS011;10715;48.546;9.896;2022-09-09T04:57:56;2.10;;;1.90;;
21114;SDS011;10715;48.546;9.896;2022-09-09T05:00:22;2.30;;;1.70;;
21114;SDS011;10715;48.546;9.896;2022-09-09T05:02:49;2.53;;;2.17;;
21114;SDS011;10715;48.546;9.896;2022-09-09T05:05:15;4.67;;;1.40;;
21114;SDS011;10715;48.546;9.896;2022-09-09T05:07:41;3.97;;;3.33;;
21114;SDS011;10715;48.546;9.896;2022-09-09T05:10:08;5.40;;;2.70;;
21114;SDS011;10715;48.546;9.896;2022-09-09T05:12:35;2.70;;;2.57;;
21114;SDS011;10715;48.546;9.896;2022-09-09T05:15:00;4.10;;;3.80;;
21114;SDS011;10715;48.546;9.896;2022-09-09T05:17:26;3.87;;;3.57;;
21114;SDS011;10715;48.546;9.896;2022-09-09T05:19:52;6.47;;;4.10;;
21114;SDS011;10715;48.546;9.896;2022-09-09T05:22:21;9.47;;;5.50;;
21114;SDS011;10715;48.546;9.896;2022-09-09T05:24:48;8.33;;;4.10;;
21114;SDS011;10715;48.546;9.896;2022-09-09T05:27:16;5.60;;;5.10;;
21114;SDS011;10715;48.546;9.896;2022-09-09T05:29:44;4.80;;;4.47;;
21114;SDS011;10715;48.546;9.896;2022-09-09T05:32:10;5.00;;;4.70;;
21114;SDS011;10715;48.546;9.896;2022-09-09T05:34:36;5.43;;;5.03;;
21114;SDS011;10715;48.546;9.896;2022-09-09T05:37:02;6.03;;;5.63;;
21114;SDS011;10715;48.546;9.896;2022-09-09T05:39:29;6.73;;;5.80;;
21114;SDS011;10715;48.546;9.896;2022-09-09T05:41:55;6.87;;;5.70;;
21114;SDS011;10715;48.546;9.896;2022-09-09T05:44:21;7.70;;;5.50;;
21114;SDS011;10715;48.546;9.896;2022-09-09T05:46:49;12.50;;;5.90;;
21114;SDS011;10715;48.546;9.896;2022-09-09T05:49:14;8.93;;;8.37;;
21114;SDS011;10715;48.546;9.896;2022-09-09T05:51:40;9.13;;;8.50;;
21114;SDS011;10715;48.546;9.896;2022-09-09T05:54:07;8.60;;;7.60;;
21114;SDS011;10715;48.546;9.896;2022-09-09T05:56:34;11.57;;;7.93;;
21114;SDS011;10715;48.546;9.896;2022-09-09T05:58:59;6.40;;;5.80;;
21114;SDS011;10715;48.546;9.896;2022-09-09T06:01:29;8.40;;;5.90;;
21114;SDS011;10715;48.546;9.896;2022-09-09T06:03:57;5.33;;;4.57;;
21114;SDS011;10715;48.546;9.896;2022-09-09T06:06:25;10.20;;;3.57;;
21114;SDS011;10715;48.546;9.896;2022-09-09T06:08:52;5.70;;;3.07;;
21114;SDS011;10715;48.546;9.896;2022-09-09T06:11:21;8.37;;;5.40;;
21114;SDS011;10715;48.546;9.896;2022-09-09T06:13:48;5.73;;;3.87;;
21114;SDS011;10715;48.546;9.896;2022-09-09T06:16:19;5.43;;;4.90;;
21114;SDS011;10715;48.546;9.896;2022-09-09T06:18:48;5.37;;;3.87;;
21114;SDS011;10715;48.546;9.896;2022-09-09T06:23:43;6.57;;;5.23;;
21114;SDS011;10715;48.546;9.896;2022-09-09T06:26:11;4.87;;;4.57;;
21114;SDS011;10715;48.546;9.896;2022-09-09T06:28:37;4.27;;;3.97;;
21114;SDS011;10715;48.546;9.896;2022-09-09T06:31:04;3.90;;;3.60;;
21114;SDS011;10715;48.546;9.896;2022-09-09T06:33:33;6.43;;;6.03;;
21114;SDS011;10715;48.546;9.896;2022-09-09T06:36:00;12.23;;;6.30;;
21114;SDS011;10715;48.546;9.896;2022-09-09T06:38:28;3.93;;;3.73;;
21114;SDS011;10715;48.546;9.896;2022-09-09T06:40:55;4.60;;;4.10;;
21114;SDS011;10715;48.546;9.896;2022-09-09T06:43:23;4.97;;;2.90;;
21114;SDS011;10715;48.546;9.896;2022-09-09T06:45:59;6.30;;;2.30;;
21114;SDS011;10715;48.546;9.896;2022-09-09T06:48:27;2.20;;;2.10;;
21114;SDS011;10715;48.546;9.896;2022-09-09T06:51:03;6.87;;;2.20;;
21114;SDS011;10715;48.546;9.896;2022-09-09T06:53:31;6.23;;;2.50;;
21114;SDS011;10715;48.546;9.896;2022-09-09T06:56:23;1.60;;;1.50;;
21114;SDS011;10715;48.546;9.896;2022-09-09T06:58:48;4.03;;;1.23;;
21114;SDS011;10715;48.546;9.896;2022-09-09T07:01:16;1.23;;;0.83;;
21114;SDS011;10715;48.546;9.896;2022-09-09T07:03:50;2.97;;;1.47;;
21114;SDS011;10715;48.546;9.896;2022-09-09T07:06:21;3.90;;;1.53;;
21114;SDS011;10715;48.546;9.896;2022-09-09T07:08:52;1.40;;;0.90;;
21114;SDS011;10715;48.546;9.896;2022-09-09T07:11:20;2.60;;;1.30;;
21114;SDS011;10715;48.546;9.896;2022-09-09T07:13:47;1.30;;;1.10;;
21114;SDS011;10715;48.546;9.896;2022-09-09T07:16:17;12.33;;;4.50;;
21114;SDS011;10715;48.546;9.896;2022-09-09T07:18:44;8.63;;;6.77;;
21114;SDS011;10715;48.546;9.896;2022-09-09T07:21:10;2.20;;;1.80;;
21114;SDS011;10715;48.546;9.896;2022-09-09T07:23:37;3.90;;;0.93;;
21114;SDS011;10715;48.546;9.896;2022-09-09T07:26:07;1.73;;;0.50;;
21114;SDS011;10715;48.546;9.896;2022-09-09T07:28:41;2.27;;;1.00;;
21114;SDS011;10715;48.546;9.896;2022-09-09T07:31:15;2.23;;;1.00;;
21114;SDS011;10715;48.546;9.896;2022-09-09T07:33:42;1.20;;;0.87;;
21114;SDS011;10715;48.546;9.896;2022-09-09T07:36:10;1.40;;;0.57;;
21114;SDS011;10715;48.546;9.896;2022-09-09T07:38:44;4.77;;;0.70;;
21114;SDS011;10715;48.546;9.896;2022-09-09T07:41:17;1.43;;;0.73;;
21114;SDS011;10715;48.546;9.896;2022-09-09T07:43:45;1.13;;;0.70;;
21114;SDS011;10715;48.546;9.896;2022-09-09T07:46:13;1.77;;;0.50;;
21114;SDS011;10715;48.546;9.896;2022-09-09T07:48:43;0.80;;;0.50;;
21114;SDS011;10715;48.546;9.896;2022-09-09T07:51:11;1.00;;;0.60;;
21114;SDS011;10715;48.546;9.896;2022-09-09T07:53:43;1.47;;;0.60;;
21114;SDS011;10715;48.546;9.896;2022-09-09T07:56:10;1.90;;;0.47;;
21114;SDS011;10715;48.546;9.896;2022-09-09T07:58:38;2.00;;;0.70;;
21114;SDS011;10715;48.546;9.896;2022-09-09T08:01:09;1.20;;;0.50;;
21114;SDS011;10715;48.546;9.896;2022-09-09T08:03:39;1.73;;;0.57;;
21114;SDS011;10715;48.546;9.896;2022-09-09T08:06:06;0.80;;;0.50;;
21114;SDS011;10715;48.546;9.896;2022-09-09T08:08:33;5.40;;;0.60;;
21114;SDS011;10715;48.546;9.896;2022-09-09T08:11:05;0.83;;;0.37;;
21114;SDS011;10715;48.546;9.896;2022-09-09T08:13:35;1.00;;;0.40;;
21114;SDS011;10715;48.546;9.896;2022-09-09T08:16:05;4.40;;;0.50;;
21114;SDS011;10715;48.546;9.896;2022-09-09T08:18:35;3.13;;;0.70;;
21114;SDS011;10715;48.546;9.896;2022-09-09T08:21:05;2.57;;;0.50;;
21114;SDS011;10715;48.546;9.896;2022-09-09T08:23:43;2.67;;;0.50;;
21114;SDS011;10715;48.546;9.896;2022-09-09T08:26:20;1.37;;;0.63;;
21114;SDS011;10715;48.546;9.896;2022-09-09T08:28:51;1.10;;;0.53;;
21114;SDS011;10715;48.546;9.896;2022-09-09T08:31:19;2.00;;;0.80;;
21114;SDS011;10715;48.546;9.896;2022-09-09T08:33:47;0.90;;;0.67;;
21114;SDS011;10715;48.546;9.896;2022-09-09T08:36:14;2.07;;;0.40;;
21114;SDS011;10715;48.546;9.896;2022-09-09T08:38:51;1.00;;;0.50;;
21114;SDS011;10715;48.546;9.896;2022-09-09T08:47:18;1.20;;;0.80;;
21114;SDS011;10715;48.546;9.896;2022-09-09T08:52:55;2.20;;;0.50;;
21114;SDS011;10715;48.546;9.896;2022-09-09T08:55:53;1.67;;;0.40;;
21114;SDS011;10715;48.546;9.896;2022-09-09T08:58:31;1.27;;;0.73;;
21114;SDS011;10715;48.546;9.896;2022-09-09T09:12:19;2.23;;;1.00;;
21114;SDS011;10715;48.546;9.896;2022-09-09T09:14:48;4.47;;;1.20;;
21114;SDS011;10715;48.546;9.896;2022-09-09T09:17:17;6.30;;;1.50;;
21114;SDS011;10715;48.546;9.896;2022-09-09T09:19:45;2.00;;;1.43;;
21114;SDS011;10715;48.546;9.896;2022-09-09T09:30:22;3.30;;;0.60;;
21114;SDS011;10715;48.546;9.896;2022-09-09T09:32:55;7.37;;;0.60;;
21114;SDS011;10715;48.546;9.896;2022-09-09T09:35:26;1.20;;;0.60;;
21114;SDS011;10715;48.546;9.896;2022-09-09T09:37:52;0.80;;;0.50;;
21114;SDS011;10715;48.546;9.896;2022-09-09T09:40:21;0.80;;;0.47;;
21114;SDS011;10715;48.546;9.896;2022-09-09T09:42:57;2.20;;;0.50;;
21114;SDS011;10715;48.546;9.896;2022-09-09T09:48:24;1.30;;;0.50;;
21114;SDS011;10715;48.546;9.896;2022-09-09T09:53:21;0.70;;;0.40;;
21114;SDS011;10715;48.546;9.896;2022-09-09T09:58:27;1.50;;;0.50;;
21114;SDS011;10715;48.546;9.896;2022-09-09T10:00:59;0.67;;;0.30;;
21114;SDS011;10715;48.546;9.896;2022-09-09T10:03:27;1.53;;;0.30;;
21114;SDS011;10715;48.546;9.896;2022-09-09T10:05:57;0.80;;;0.40;;
21114;SDS011;10715;48.546;9.896;2022-09-09T10:08:24;1.73;;;0.43;;
21114;SDS011;10715;48.546;9.896;2022-09-09T10:19:00;1.87;;;0.50;;
21114;SDS011;10715;48.546;9.896;2022-09-09T10:32:48;0.60;;;0.30;;
21114;SDS011;10715;48.546;9.896;2022-09-09T10:51:13;2.77;;;0.30;;
21114;SDS011;10715;48.546;9.896;2022-09-09T10:56:33;0.77;;;0.40;;
21114;SDS011;10715;48.546;9.896;2022-09-09T10:59:19;1.43;;;0.30;;
21114;SDS011;10715;48.546;9.896;2022-09-09T11:04:22;1.60;;;0.40;;
21114;SDS011;10715;48.546;9.896;2022-09-09T11:07:08;0.70;;;0.50;;
21114;SDS011;10715;48.546;9.896;2022-09-09T11:09:41;1.50;;;0.33;;
21114;SDS011;10715;48.546;9.896;2022-09-09T11:12:13;0.70;;;0.30;;
21114;SDS011;10715;48.546;9.896;2022-09-09T11:14:45;3.40;;;0.40;;
21114;SDS011;10715;48.546;9.896;2022-09-09T11:17:26;1.00;;;0.37;;
21114;SDS011;10715;48.546;9.896;2022-09-09T11:20:05;1.10;;;0.30;;
21114;SDS011;10715;48.546;9.896;2022-09-09T11:22:37;0.83;;;0.30;;
21114;SDS011;10715;48.546;9.896;2022-09-09T11:25:17;1.97;;;0.30;;
21114;SDS011;10715;48.546;9.896;2022-09-09T11:28:16;0.87;;;0.40;;
21114;SDS011;10715;48.546;9.896;2022-09-09T11:44:39;1.13;;;0.40;;
21114;SDS011;10715;48.546;9.896;2022-09-09T11:55:20;2.00;;;0.30;;
21114;SDS011;10715;48.546;9.896;2022-09-09T11:58:05;1.57;;;0.30;;
21114;SDS011;10715;48.546;9.896;2022-09-09T12:00:42;2.43;;;0.40;;
21114;SDS011;10715;48.546;9.896;2022-09-09T12:03:55;0.70;;;0.30;;
21114;SDS011;10715;48.546;9.896;2022-09-09T12:06:24;0.90;;;0.30;;
21114;SDS011;10715;48.546;9.896;2022-09-09T12:09:12;2.07;;;0.50;;
21114;SDS011;10715;48.546;9.896;2022-09-09T12:11:40;0.90;;;0.30;;
21114;SDS011;10715;48.546;9.896;2022-09-09T12:14:18;1.93;;;0.30;;
21114;SDS011;10715;48.546;9.896;2022-09-09T12:17:23;1.40;;;0.70;;
21114;SDS011;10715;48.546;9.896;2022-09-09T12:20:06;0.70;;;0.30;;
21114;SDS011;10715;48.546;9.896;2022-09-09T12:26:06;3.80;;;0.50;;
21114;SDS011;10715;48.546;9.896;2022-09-09T12:29:03;0.93;;;0.30;;
21114;SDS011;10715;48.546;9.896;2022-09-09T12:34:16;0.60;;;0.30;;
21114;SDS011;10715;48.546;9.896;2022-09-09T12:36:54;0.60;;;0.30;;
21114;SDS011;10715;48.546;9.896;2022-09-09T12:39:28;0.50;;;0.30;;
21114;SDS011;10715;48.546;9.896;2022-09-09T12:42:15;1.37;;;0.40;;
21114;SDS011;10715;48.546;9.896;2022-09-09T12:47:18;1.33;;;0.30;;
21114;SDS011;10715;48.546;9.896;2022-09-09T12:49:47;0.80;;;0.40;;
21114;SDS011;10715;48.546;9.896;2022-09-09T12:54:45;0.50;;;0.23;;
21114;SDS011;10715;48.546;9.896;2022-09-09T12:57:12;0.83;;;0.30;;
21114;SDS011;10715;48.546;9.896;2022-09-09T12:59:41;2.57;;;0.40;;
21114;SDS011;10715;48.546;9.896;2022-09-09T13:02:23;0.70;;;0.30;;
21114;SDS011;10715;48.546;9.896;2022-09-09T13:04:51;0.70;;;0.30;;
21114;SDS011;10715;48.546;9.896;2022-09-09T13:07:19;5.60;;;0.50;;
21114;SDS011;10715;48.546;9.896;2022-09-09T13:09:48;3.47;;;0.40;;
21114;SDS011;10715;48.546;9.896;2022-09-09T13:12:21;2.50;;;0.30;;
21114;SDS011;10715;48.546;9.896;2022-09-09T13:14:49;1.77;;;0.33;;
21114;SDS011;10715;48.546;9.896;2022-09-09T13:17:22;1.10;;;0.47;;
21114;SDS011;10715;48.546;9.896;2022-09-09T13:19:50;1.93;;;0.30;;
21114;SDS011;10715;48.546;9.896;2022-09-09T13:22:21;1.47;;;0.40;;
21114;SDS011;10715;48.546;9.896;2022-09-09T13:24:58;2.40;;;0.40;;
21114;SDS011;10715;48.546;9.896;2022-09-09T13:27:39;0.77;;;0.40;;
21114;SDS011;10715;48.546;9.896;2022-09-09T13:30:22;1.07;;;0.63;;
21114;SDS011;10715;48.546;9.896;2022-09-09T13:35:55;3.00;;;0.50;;
21114;SDS011;10715;48.546;9.896;2022-09-09T13:38:23;2.40;;;0.50;;
21114;SDS011;10715;48.546;9.896;2022-09-09T13:43:30;1.17;;;0.40;;
21114;SDS011;10715;48.546;9.896;2022-09-09T13:46:00;3.43;;;0.50;;
21114;SDS011;10715;48.546;9.896;2022-09-09T13:48:28;7.03;;;1.17;;
21114;SDS011;10715;48.546;9.896;2022-09-09T13:50:57;2.60;;;1.07;;
21114;SDS011;10715;48.546;9.896;2022-09-09T13:53:45;1.27;;;0.40;;
21114;SDS011;10715;48.546;9.896;2022-09-09T13:56:12;0.50;;;0.30;;
21114;SDS011;10715;48.546;9.896;2022-09-09T13:58:37;1.43;;;0.30;;
21114;SDS011;10715;48.546;9.896;2022-09-09T14:01:03;6.33;;;0.50;;
21114;SDS011;10715;48.546;9.896;2022-09-09T14:03:29;0.80;;;0.30;;
21114;SDS011;10715;48.546;9.896;2022-09-09T14:05:55;0.70;;;0.30;;
21114;SDS011;10715;48.546;9.896;2022-09-09T14:08:22;1.80;;;0.40;;
21114;SDS011;10715;48.546;9.896;2022-09-09T14:10:50;1.03;;;0.30;;
21114;SDS011;10715;48.546;9.896;2022-09-09T14:13:17;4.73;;;0.93;;
21114;SDS011;10715;48.546;9.896;2022-09-09T14:15:43;2.90;;;0.40;;
21114;SDS011;10715;48.546;9.896;2022-09-09T14:18:12;1.30;;;0.40;;
21114;SDS011;10715;48.546;9.896;2022-09-09T14:20:38;2.10;;;0.40;;
21114;SDS011;10715;48.546;9.896;2022-09-09T14:23:04;0.90;;;0.40;;
21114;SDS011;10715;48.546;9.896;2022-09-09T14:25:30;0.80;;;0.30;;
21114;SDS011;10715;48.546;9.896;2022-09-09T14:27:56;1.57;;;0.30;;
21114;SDS011;10715;48.546;9.896;2022-09-09T14:30:22;0.77;;;0.30;;
21114;SDS011;10715;48.546;9.896;2022-09-09T14:32:47;0.60;;;0.20;;
21114;SDS011;10715;48.546;9.896;2022-09-09T14:35:13;1.13;;;0.40;;
21114;SDS011;10715;48.546;9.896;2022-09-09T14:37:39;1.90;;;0.30;;
21114;SDS011;10715;48.546;9.896;2022-09-09T14:40:05;3.03;;;0.30;;
21114;SDS011;10715;48.546;9.896;2022-09-09T14:42:31;1.20;;;0.30;;
21114;SDS011;10715;48.546;9.896;2022-09-09T14:44:56;1.27;;;0.40;;
21114;SDS011;10715;48.546;9.896;2022-09-09T14:47:22;0.80;;;0.40;;
21114;SDS011;10715;48.546;9.896;2022-09-09T14:49:48;0.80;;;0.40;;
21114;SDS011;10715;48.546;9.896;2022-09-09T14:52:14;3.43;;;0.30;;
21114;SDS011;10715;48.546;9.896;2022-09-09T14:54:41;0.70;;;0.30;;
21114;SDS011;10715;48.546;9.896;2022-09-09T14:57:07;1.00;;;0.40;;
21114;SDS011;10715;48.546;9.896;2022-09-09T14:59:32;2.07;;;0.37;;
21114;SDS011;10715;48.546;9.896;2022-09-09T15:01:59;6.53;;;0.60;;
21114;SDS011;10715;48.546;9.896;2022-09-09T15:04:29;3.33;;;0.50;;
21114;SDS011;10715;48.546;9.896;2022-09-09T15:06:55;1.20;;;0.30;;
21114;SDS011;10715;48.546;9.896;2022-09-09T15:09:20;0.80;;;0.30;;
21114;SDS011;10715;48.546;9.896;2022-09-09T15:11:46;0.57;;;0.30;;
21114;SDS011;10715;48.546;9.896;2022-09-09T15:14:12;0.83;;;0.50;;
21114;SDS011;10715;48.546;9.896;2022-09-09T15:16:38;1.10;;;0.40;;
21114;SDS011;10715;48.546;9.896;2022-09-09T15:19:04;1.73;;;0.40;;
21114;SDS011;10715;48.546;9.896;2022-09-09T15:21:31;0.80;;;0.30;;
21114;SDS011;10715;48.546;9.896;2022-09-09T15:23:58;2.40;;;0.40;;
21114;SDS011;10715;48.546;9.896;2022-09-09T15:26:24;0.80;;;0.30;;
21114;SDS011;10715;48.546;9.896;2022-09-09T15:28:51;0.70;;;0.30;;
21114;SDS011;10715;48.546;9.896;2022-09-09T15:33:46;2.67;;;0.30;;
21114;SDS011;10715;48.546;9.896;2022-09-09T15:36:17;0.80;;;0.30;;
21114;SDS011;10715;48.546;9.896;2022-09-09T15:38:45;0.70;;;0.30;;
21114;SDS011;10715;48.546;9.896;2022-09-09T15:41:11;2.07;;;0.37;;
21114;SDS011;10715;48.546;9.896;2022-09-09T15:43:38;0.80;;;0.40;;
21114;SDS011;10715;48.546;9.896;2022-09-09T15:48:42;4.57;;;0.40;;
21114;SDS011;10715;48.546;9.896;2022-09-09T15:51:09;1.33;;;0.40;;
21114;SDS011;10715;48.546;9.896;2022-09-09T15:53:36;0.70;;;0.30;;
21114;SDS011;10715;48.546;9.896;2022-09-09T15:56:04;2.20;;;0.40;;
21114;SDS011;10715;48.546;9.896;2022-09-09T15:58:31;1.20;;;0.40;;
21114;SDS011;10715;48.546;9.896;2022-09-09T16:01:04;2.20;;;0.30;;
21114;SDS011;10715;48.546;9.896;2022-09-09T16:03:35;0.80;;;0.40;;
21114;SDS011;10715;48.546;9.896;2022-09-09T16:06:05;1.53;;;0.30;;
21114;SDS011;10715;48.546;9.896;2022-09-09T16:08:32;1.13;;;0.30;;
21114;SDS011;10715;48.546;9.896;2022-09-09T16:11:12;1.77;;;1.27;;
21114;SDS011;10715;48.546;9.896;2022-09-09T16:13:40;1.03;;;0.53;;
21114;SDS011;10715;48.546;9.896;2022-09-09T16:16:08;0.70;;;0.40;;
21114;SDS011;10715;48.546;9.896;2022-09-09T16:18:36;0.70;;;0.40;;
21114;SDS011;10715;48.546;9.896;2022-09-09T16:21:05;1.10;;;0.40;;
21114;SDS011;10715;48.546;9.896;2022-09-09T16:23:33;1.13;;;0.30;;
21114;SDS011;10715;48.546;9.896;2022-09-09T16:25:59;1.43;;;0.37;;
21114;SDS011;10715;48.546;9.896;2022-09-09T16:28:26;5.90;;;0.83;;
21114;SDS011;10715;48.546;9.896;2022-09-09T16:30:52;1.10;;;0.43;;
21114;SDS011;10715;48.546;9.896;2022-09-09T16:33:18;2.90;;;0.37;;
21114;SDS011;10715;48.546;9.896;2022-09-09T16:35:44;1.50;;;0.30;;
21114;SDS011;10715;48.546;9.896;2022-09-09T16:38:10;0.87;;;0.27;;
21114;SDS011;10715;48.546;9.896;2022-09-09T16:40:39;4.00;;;1.50;;
21114;SDS011;10715;48.546;9.896;2022-09-09T16:43:06;0.60;;;0.30;;
21114;SDS011;10715;48.546;9.896;2022-09-09T16:45:32;0.80;;;0.30;;
21114;SDS011;10715;48.546;9.896;2022-09-09T16:48:01;1.20;;;0.40;;
21114;SDS011;10715;48.546;9.896;2022-09-09T16:50:26;0.60;;;0.30;;
21114;SDS011;10715;48.546;9.896;2022-09-09T16:52:52;1.13;;;0.30;;
21114;SDS011;10715;48.546;9.896;2022-09-09T16:55:18;1.80;;;0.40;;
21114;SDS011;10715;48.546;9.896;2022-09-09T16:57:45;0.97;;;0.40;;
21114;SDS011;10715;48.546;9.896;2022-09-09T17:00:13;0.70;;;0.40;;
21114;SDS011;10715;48.546;9.896;2022-09-09T17:02:41;0.93;;;0.30;;
21114;SDS011;10715;48.546;9.896;2022-09-09T17:05:08;0.57;;;0.30;;
21114;SDS011;10715;48.546;9.896;2022-09-09T17:07:34;0.80;;;0.30;;
21114;SDS011;10715;48.546;9.896;2022-09-09T17:10:00;0.70;;;0.30;;
21114;SDS011;10715;48.546;9.896;2022-09-09T17:12:26;1.10;;;0.40;;
21114;SDS011;10715;48.546;9.896;2022-09-09T17:14:52;0.60;;;0.30;;
21114;SDS011;10715;48.546;9.896;2022-09-09T17:17:20;1.07;;;0.30;;
21114;SDS011;10715;48.546;9.896;2022-09-09T17:19:46;1.90;;;0.40;;
21114;SDS011;10715;48.546;9.896;2022-09-09T17:22:12;3.13;;;0.50;;
21114;SDS011;10715;48.546;9.896;2022-09-09T17:24:38;0.60;;;0.30;;
21114;SDS011;10715;48.546;9.896;2022-09-09T17:27:05;3.53;;;0.40;;
21114;SDS011;10715;48.546;9.896;2022-09-09T17:29:31;1.03;;;0.40;;
21114;SDS011;10715;48.546;9.896;2022-09-09T17:31:57;2.20;;;0.30;;
21114;SDS011;10715;48.546;9.896;2022-09-09T17:34:23;1.53;;;0.50;;
21114;SDS011;10715;48.546;9.896;2022-09-09T17:36:50;0.60;;;0.20;;
21114;SDS011;10715;48.546;9.896;2022-09-09T17:39:15;1.17;;;0.30;;
21114;SDS011;10715;48.546;9.896;2022-09-09T17:41:41;1.00;;;0.30;;
21114;SDS011;10715;48.546;9.896;2022-09-09T17:44:07;0.60;;;0.30;;
21114;SDS011;10715;48.546;9.896;2022-09-09T17:46:35;0.60;;;0.30;;
21114;SDS011;10715;48.546;9.896;2022-09-09T17:49:05;0.70;;;0.70;;
21114;SDS011;10715;48.546;9.896;2022-09-09T17:51:34;2.13;;;0.57;;
21114;SDS011;10715;48.546;9.896;2022-09-09T17:54:04;0.63;;;0.30;;
21114;SDS011;10715;48.546;9.896;2022-09-09T17:56:32;0.60;;;0.30;;